createdAt,value
2018-06-14T00:01:13.144Z,101081.02
2018-06-14T00:03:41.640Z,101076.48
2018-06-14T00:06:10.177Z,101080.05
2018-06-14T00:08:38.768Z,101081.41
2018-06-14T00:11:07.282Z,101083.91
2018-06-14T00:13:35.765Z,101089.73
2018-06-14T00:16:04.209Z,101093.00
2018-06-14T00:18:32.716Z,101089.98
2018-06-14T00:21:01.230Z,101093.18
2018-06-14T00:23:29.695Z,101094.05
2018-06-14T00:25:58.235Z,101093.97
2018-06-14T00:28:26.787Z,101090.47
2018-06-14T00:30:55.239Z,101082.36
2018-06-14T00:33:24.040Z,101091.75
2018-06-14T00:35:52.675Z,101085.06
2018-06-14T00:38:21.264Z,101090.41
2018-06-14T00:40:49.838Z,101083.92
2018-06-14T00:43:18.400Z,101091.73
2018-06-14T00:45:46.920Z,101096.09
2018-06-14T00:48:15.498Z,101102.93
2018-06-14T00:50:44.120Z,101102.63
2018-06-14T00:53:12.667Z,101102.63
2018-06-14T00:55:41.267Z,101108.14
2018-06-14T00:58:09.761Z,101104.19
2018-06-14T01:00:38.235Z,101111.44
2018-06-14T01:03:06.764Z,101116.36
2018-06-14T01:05:35.359Z,101124.86
2018-06-14T01:08:03.874Z,101123.61
2018-06-14T01:10:32.312Z,101125.20
2018-06-14T01:13:00.810Z,101121.73
2018-06-14T01:15:29.341Z,101130.23
2018-06-14T01:17:57.930Z,101130.72
2018-06-14T01:20:26.446Z,101127.15
2018-06-14T01:22:54.958Z,101125.59
2018-06-14T01:25:23.536Z,101131.38
2018-06-14T01:27:52.062Z,101132.18
2018-06-14T01:30:20.620Z,101138.31
2018-06-14T01:32:49.178Z,101132.35
2018-06-14T01:35:17.711Z,101138.80
2018-06-14T01:37:57.455Z,101147.02
2018-06-14T01:40:25.960Z,101145.84
2018-06-14T01:42:54.528Z,101141.78
2018-06-14T01:45:23.060Z,101145.45
2018-06-14T01:47:51.772Z,101144.48
2018-06-14T01:50:20.345Z,101150.55
2018-06-14T01:52:48.860Z,101151.41
2018-06-14T01:55:17.341Z,101153.21
2018-06-14T01:57:45.881Z,101156.19
2018-06-14T02:00:14.403Z,101155.42
2018-06-14T02:02:42.960Z,101162.03
2018-06-14T02:05:11.448Z,101157.69
2018-06-14T02:07:40.064Z,101164.23
2018-06-14T02:10:08.508Z,101167.20
2018-06-14T02:12:36.989Z,101170.23
2018-06-14T02:15:05.874Z,101176.70
2018-06-14T02:17:34.464Z,101179.32
2018-06-14T02:20:02.970Z,101172.41
2018-06-14T02:22:31.570Z,101171.70
2018-06-14T02:25:00.108Z,101168.23
2018-06-14T02:27:28.636Z,101171.57
2018-06-14T02:29:57.284Z,101175.72
2018-06-14T02:32:25.875Z,101170.95
2018-06-14T02:34:54.428Z,101166.68
2018-06-14T02:37:23.027Z,101174.72
2018-06-14T02:39:51.518Z,101168.35
2018-06-14T02:42:20.717Z,101168.38
2018-06-14T02:44:49.302Z,101166.64
2018-06-14T02:47:17.820Z,101173.94
2018-06-14T02:49:46.524Z,101178.34
2018-06-14T02:52:15.083Z,101178.49
2018-06-14T02:54:43.704Z,101181.93
2018-06-14T02:57:12.233Z,101178.12
2018-06-14T02:59:40.762Z,101183.20
2018-06-14T03:02:09.245Z,101185.99
2018-06-14T03:04:37.807Z,101189.09
2018-06-14T03:07:06.723Z,101191.08
2018-06-14T03:09:35.460Z,101184.48
2018-06-14T03:12:04.071Z,101185.50
2018-06-14T03:14:32.619Z,101195.44
2018-06-14T03:17:01.102Z,101191.95
2018-06-14T03:19:29.573Z,101199.72
2018-06-14T03:21:58.152Z,101198.61
2018-06-14T03:24:26.706Z,101192.41
2018-06-14T03:26:55.239Z,101191.24
2018-06-14T03:29:23.863Z,101188.12
2018-06-14T03:31:52.388Z,101196.22
2018-06-14T03:34:20.969Z,101196.94
2018-06-14T03:36:49.501Z,101190.67
2018-06-14T03:39:18.114Z,101196.12
2018-06-14T03:41:46.743Z,101193.42
2018-06-14T03:44:15.326Z,101197.47
2018-06-14T03:46:43.898Z,101207.84
2018-06-14T03:49:12.472Z,101201.46
2018-06-14T03:51:40.980Z,101197.62
2018-06-14T03:54:09.466Z,101210.14
2018-06-14T03:56:37.988Z,101217.04
2018-06-14T03:59:06.478Z,101213.80
2018-06-14T04:01:35.133Z,101209.99
2018-06-14T04:04:03.699Z,101207.69
2018-06-14T04:06:32.252Z,101212.31
2018-06-14T04:09:00.787Z,101213.72
2018-06-14T04:11:29.322Z,101215.67
2018-06-14T04:13:57.899Z,101214.95
2018-06-14T04:16:26.403Z,101218.52
2018-06-14T04:18:54.973Z,101230.37
2018-06-14T04:21:23.573Z,101225.60
2018-06-14T04:23:51.992Z,101232.98
2018-06-14T04:26:20.513Z,101229.33
2018-06-14T04:28:49.038Z,101228.70
2018-06-14T04:31:17.489Z,101230.23
2018-06-14T04:33:47.111Z,101230.05
2018-06-14T04:36:15.596Z,101224.11
2018-06-14T04:38:44.083Z,101231.72
2018-06-14T04:41:12.584Z,101231.24
2018-06-14T04:43:41.139Z,101226.41
2018-06-14T04:46:09.652Z,101231.09
2018-06-14T04:48:38.227Z,101232.05
2018-06-14T04:51:06.693Z,101230.61
2018-06-14T04:53:38.999Z,101230.69
2018-06-14T04:56:08.330Z,101229.87
2018-06-14T04:58:37.748Z,101224.41
2018-06-14T05:01:06.906Z,101226.09
2018-06-14T05:03:35.773Z,101226.33
2018-06-14T05:06:04.314Z,101217.73
2018-06-14T05:08:32.909Z,101216.04
2018-06-14T05:11:02.139Z,101219.78
2018-06-14T05:13:30.707Z,101218.58
2018-06-14T05:16:03.518Z,101220.33
2018-06-14T05:18:32.054Z,101223.81
2018-06-14T05:21:00.534Z,101230.00
2018-06-14T05:23:29.163Z,101221.70
2018-06-14T05:25:57.716Z,101227.65
2018-06-14T05:28:26.288Z,101229.87
2018-06-14T05:30:54.766Z,101228.07
2018-06-14T05:33:23.308Z,101232.64
2018-06-14T05:35:51.841Z,101224.33
2018-06-14T05:38:20.372Z,101229.30
2018-06-14T05:40:48.857Z,101230.98
2018-06-14T05:43:17.370Z,101222.44
2018-06-14T05:45:45.880Z,101231.63
2018-06-14T05:48:14.430Z,101232.09
2018-06-14T05:50:42.962Z,101230.39
2018-06-14T05:53:11.558Z,101229.85
2018-06-14T05:55:40.190Z,101233.36
2018-06-14T05:58:08.890Z,101234.44
2018-06-14T06:00:37.437Z,101236.17
2018-06-14T06:03:05.876Z,101242.16
2018-06-14T06:05:34.350Z,101241.11
2018-06-14T06:08:02.803Z,101239.04
2018-06-14T06:10:31.395Z,101235.03
2018-06-14T06:12:59.983Z,101229.59
2018-06-14T06:15:28.379Z,101237.48
2018-06-14T06:17:57.001Z,101226.89
2018-06-14T06:20:25.432Z,101231.10
2018-06-14T06:22:53.892Z,101230.09
2018-06-14T06:25:22.396Z,101231.58
2018-06-14T06:27:50.870Z,101235.84
2018-06-14T06:30:19.322Z,101241.72
2018-06-14T06:32:47.761Z,101243.37
2018-06-14T06:35:16.303Z,101240.58
2018-06-14T06:37:44.823Z,101240.78
2018-06-14T06:40:13.277Z,101245.18
2018-06-14T06:42:41.791Z,101242.97
2018-06-14T06:45:10.415Z,101233.16
2018-06-14T06:47:39.022Z,101231.91
2018-06-14T06:50:07.561Z,101221.02
2018-06-14T06:52:36.086Z,101222.44
2018-06-14T06:55:04.694Z,101217.03
2018-06-14T06:57:33.373Z,101212.44
2018-06-14T07:00:01.962Z,101220.48
2018-06-14T07:02:30.555Z,101217.80
2018-06-14T07:04:59.348Z,101197.53
2018-06-14T07:07:27.937Z,101210.48
2018-06-14T07:09:56.632Z,101212.59
2018-06-14T07:12:25.675Z,101213.88
2018-06-14T07:14:54.090Z,101213.97
2018-06-14T07:17:22.799Z,101221.02
2018-06-14T07:19:51.265Z,101213.37
2018-06-14T07:22:19.849Z,101214.50
2018-06-14T07:24:48.432Z,101221.75
2018-06-14T07:27:17.415Z,101215.16
2018-06-14T07:29:46.029Z,101212.02
2018-06-14T07:32:14.698Z,101212.61
2018-06-14T07:34:43.356Z,101212.53
2018-06-14T07:37:11.788Z,101214.25
2018-06-14T07:39:40.164Z,101219.21
2018-06-14T07:42:08.592Z,101214.46
2018-06-14T07:44:36.990Z,101218.34
2018-06-14T07:47:05.450Z,101210.94
2018-06-14T07:49:33.904Z,101213.66
2018-06-14T07:52:02.688Z,101217.67
2018-06-14T07:54:31.128Z,101220.52
2018-06-14T07:56:59.757Z,101222.88
2018-06-14T07:59:28.181Z,101221.86
2018-06-14T08:01:56.616Z,101219.16
2018-06-14T08:04:25.033Z,101225.99
2018-06-14T08:06:53.401Z,101228.61
2018-06-14T08:09:22.367Z,101222.00
2018-06-14T08:11:50.802Z,101223.82
2018-06-14T08:14:19.183Z,101212.08
2018-06-14T08:16:47.563Z,101204.82
2018-06-14T08:19:15.985Z,101200.11
2018-06-14T08:21:44.414Z,101200.75
2018-06-14T08:24:12.884Z,101203.83
2018-06-14T08:26:41.404Z,101202.66
2018-06-14T08:29:09.852Z,101200.95
2018-06-14T08:31:38.292Z,101201.94
2018-06-14T08:34:06.741Z,101199.36
2018-06-14T08:36:35.128Z,101194.29
2018-06-14T08:39:04.457Z,101196.23
2018-06-14T08:41:33.269Z,101201.70
2018-06-14T08:44:01.773Z,101207.59
2018-06-14T08:46:30.334Z,101207.64
2018-06-14T08:48:59.446Z,101201.23
2018-06-14T08:51:28.072Z,101196.36
2018-06-14T08:53:56.536Z,101181.91
2018-06-14T08:56:24.952Z,101176.45
2018-06-14T08:58:53.362Z,101185.05
2018-06-14T09:01:21.810Z,101177.97
2018-06-14T09:03:50.287Z,101174.30
2018-06-14T09:06:19.217Z,101184.63
2018-06-14T09:08:47.688Z,101178.36
2018-06-14T09:11:16.129Z,101175.41
2018-06-14T09:13:44.529Z,101179.56
2018-06-14T09:16:12.926Z,101181.44
2018-06-14T09:18:41.324Z,101180.44
2018-06-14T09:21:09.689Z,101169.39
2018-06-14T09:23:38.047Z,101169.03
2018-06-14T09:26:07.997Z,101161.66
2018-06-14T09:28:37.079Z,101163.38
2018-06-14T09:31:05.947Z,101164.38
2018-06-14T09:33:34.460Z,101173.66
2018-06-14T09:36:03.149Z,101163.34
2018-06-14T09:38:31.646Z,101167.33
2018-06-14T09:41:00.083Z,101167.05
2018-06-14T09:43:28.530Z,101161.86
2018-06-14T09:45:57.091Z,101163.59
2018-06-14T09:48:25.535Z,101171.72
2018-06-14T09:50:54.069Z,101159.13
2018-06-14T09:53:22.511Z,101164.98
2018-06-14T09:55:50.994Z,101162.92
2018-06-14T09:58:19.515Z,101161.50
2018-06-14T10:00:48.032Z,101153.32
2018-06-14T10:03:17.065Z,101147.60
2018-06-14T10:05:45.576Z,101143.06
2018-06-14T10:08:14.780Z,101147.19
2018-06-14T10:10:43.497Z,101145.92
2018-06-14T10:13:12.001Z,101143.74
2018-06-14T10:15:40.601Z,101136.97
2018-06-14T10:18:09.104Z,101132.56
2018-06-14T10:20:37.508Z,101141.45
2018-06-14T10:23:05.877Z,101136.22
2018-06-14T10:25:34.336Z,101126.97
2018-06-14T10:28:02.786Z,101138.24
2018-06-14T10:30:31.275Z,101135.71
2018-06-14T10:32:59.701Z,101129.50
2018-06-14T10:35:28.756Z,101137.46
2018-06-14T10:37:57.243Z,101121.93
2018-06-14T10:40:26.592Z,101125.00
2018-06-14T10:42:55.227Z,101128.00
2018-06-14T10:45:23.741Z,101109.44
2018-06-14T10:47:52.400Z,101114.22
2018-06-14T10:50:20.998Z,101115.82
2018-06-14T10:52:50.737Z,101112.25
2018-06-14T10:55:19.464Z,101110.20
2018-06-14T10:57:48.012Z,101109.27
2018-06-14T11:00:16.778Z,101110.09
2018-06-14T11:02:45.367Z,101108.11
2018-06-14T11:05:14.386Z,101104.06
2018-06-14T11:07:43.040Z,101098.88
2018-06-14T11:10:11.652Z,101095.69
2018-06-14T11:12:40.204Z,101103.88
2018-06-14T11:15:09.657Z,101102.83
2018-06-14T11:17:38.247Z,101111.09
2018-06-14T11:20:07.088Z,101108.67
2018-06-14T11:22:35.687Z,101105.78
2018-06-14T11:25:04.426Z,101099.62
2018-06-14T11:27:33.193Z,101093.12
2018-06-14T11:30:01.908Z,101106.07
2018-06-14T11:32:30.671Z,101099.85
2018-06-14T11:34:59.352Z,101096.55
2018-06-14T11:37:28.044Z,101097.18
2018-06-14T11:39:56.657Z,101102.63
2018-06-14T11:42:25.264Z,101100.04
2018-06-14T11:44:54.045Z,101109.72
2018-06-14T11:47:23.687Z,101108.73
2018-06-14T11:49:52.340Z,101102.55
2018-06-14T11:52:21.124Z,101106.43
2018-06-14T11:54:50.418Z,101101.52
2018-06-14T11:57:19.450Z,101091.68
2018-06-14T11:59:53.381Z,101090.67
2018-06-14T12:02:22.749Z,101090.38
2018-06-14T12:04:52.170Z,101097.14
2018-06-14T12:07:20.664Z,101098.19
2018-06-14T12:09:49.351Z,101096.64
2018-06-14T12:12:18.253Z,101093.53
2018-06-14T12:14:47.439Z,101092.11
2018-06-14T12:17:15.958Z,101094.56
2018-06-14T12:19:45.261Z,101089.44
2018-06-14T12:22:13.904Z,101097.30
2018-06-14T12:24:42.443Z,101089.99
2018-06-14T12:27:11.194Z,101090.44
2018-06-14T12:29:39.906Z,101084.30
2018-06-14T12:32:08.537Z,101090.91
2018-06-14T12:34:37.220Z,101086.61
2018-06-14T12:37:05.815Z,101089.62
2018-06-14T12:39:34.388Z,101084.06
2018-06-14T12:42:03.861Z,101082.14
2018-06-14T12:44:32.554Z,101081.80
2018-06-14T12:47:01.197Z,101082.81
2018-06-14T12:49:29.876Z,101073.40
2018-06-14T12:51:58.503Z,101069.64
2018-06-14T12:54:27.172Z,101064.25
2018-06-14T12:56:55.799Z,101060.00
2018-06-14T12:59:24.348Z,101060.19
2018-06-14T13:01:52.919Z,101049.16
2018-06-14T13:04:21.528Z,101058.37
2018-06-14T13:06:50.930Z,101054.98
2018-06-14T13:09:19.505Z,101054.42
2018-06-14T13:11:49.128Z,101050.58
2018-06-14T13:14:17.879Z,101049.41
2018-06-14T13:16:46.554Z,101049.32
2018-06-14T13:19:15.160Z,101058.37
2018-06-14T13:21:43.660Z,101048.80
2018-06-14T13:24:12.327Z,101047.48
2018-06-14T13:26:40.914Z,101042.03
2018-06-14T13:29:09.477Z,101037.53
2018-06-14T13:31:38.236Z,101040.37
2018-06-14T13:34:07.962Z,101030.28
2018-06-14T13:36:36.691Z,101026.34
2018-06-14T13:39:07.220Z,101030.24
2018-06-14T13:41:35.904Z,101020.64
2018-06-14T13:44:04.629Z,101021.14
2018-06-14T13:46:33.275Z,101026.96
2018-06-14T13:49:01.970Z,101021.50
2018-06-14T13:51:31.470Z,101021.95
2018-06-14T13:54:00.290Z,101014.78
2018-06-14T13:56:29.031Z,101009.25
2018-06-14T13:58:57.708Z,101003.28
2018-06-14T14:01:26.389Z,101011.22
2018-06-14T14:03:55.307Z,101004.89
2018-06-14T14:06:24.150Z,101006.11
2018-06-14T14:08:52.776Z,101000.84
2018-06-14T14:11:21.367Z,100993.25
2018-06-14T14:13:49.843Z,100988.04
2018-06-14T14:16:18.447Z,100988.04
2018-06-14T14:18:48.011Z,100991.38
2018-06-14T14:21:16.665Z,100987.83
2018-06-14T14:23:45.203Z,100988.45
2018-06-14T14:26:13.837Z,100982.17
2018-06-14T14:28:42.422Z,100978.69
2018-06-14T14:31:10.934Z,100965.75
2018-06-14T14:33:39.607Z,100961.27
2018-06-14T14:36:08.190Z,100956.14
2018-06-14T14:38:36.891Z,100961.36
2018-06-14T14:41:05.656Z,100952.64
2018-06-14T14:43:34.342Z,100950.27
2018-06-14T14:46:03.055Z,100955.03
2018-06-14T14:48:33.487Z,100951.33
2018-06-14T14:51:02.814Z,100946.33
2018-06-14T14:53:31.532Z,100949.81
2018-06-14T14:56:00.801Z,100949.29
2018-06-14T14:58:29.586Z,100943.44
2018-06-14T15:00:58.209Z,100946.05
2018-06-14T15:03:27.051Z,100938.36
2018-06-14T15:05:55.595Z,100942.46
2018-06-14T15:08:24.413Z,100935.23
2018-06-14T15:10:53.135Z,100939.84
2018-06-14T15:13:21.720Z,100935.89
2018-06-14T15:15:50.469Z,100937.61
2018-06-14T15:18:19.212Z,100936.20
2018-06-14T15:20:48.829Z,100938.67
2018-06-14T15:23:17.430Z,100938.45
2018-06-14T15:25:45.957Z,100929.25
2018-06-14T15:28:14.654Z,100930.62
2018-06-14T15:30:43.272Z,100935.02
2018-06-14T15:33:12.075Z,100925.96
2018-06-14T15:35:40.830Z,100927.33
2018-06-14T15:38:09.488Z,100919.42
2018-06-14T15:40:38.079Z,100914.67
2018-06-14T15:43:06.851Z,100904.40
2018-06-14T15:45:35.572Z,100906.33
2018-06-14T15:48:04.350Z,100910.67
2018-06-14T15:50:32.984Z,100902.89
2018-06-14T15:53:01.619Z,100903.12
2018-06-14T15:55:56.900Z,100902.47
2018-06-14T15:58:25.646Z,100903.75
2018-06-14T16:00:54.221Z,100902.73
2018-06-14T16:03:22.734Z,100892.67
2018-06-14T16:05:51.388Z,100885.27
2018-06-14T16:08:19.972Z,100885.98
2018-06-14T16:10:48.668Z,100884.00
2018-06-14T16:13:17.443Z,100881.63
2018-06-14T16:15:46.053Z,100880.02
2018-06-14T16:18:14.879Z,100876.16
2018-06-14T16:20:44.962Z,100874.64
2018-06-14T16:23:13.631Z,100869.33
2018-06-14T16:25:42.369Z,100868.97
2018-06-14T16:28:11.432Z,100865.34
2018-06-14T16:30:40.306Z,100867.36
2018-06-14T16:33:09.542Z,100866.59
2018-06-14T16:35:38.307Z,100864.88
2018-06-14T16:38:07.157Z,100861.63
2018-06-14T16:40:36.037Z,100861.48
2018-06-14T16:43:04.969Z,100866.59
2018-06-14T16:45:33.727Z,100860.63
2018-06-14T16:48:02.608Z,100857.53
2018-06-14T16:50:33.781Z,100859.11
2018-06-14T16:53:05.252Z,100860.77
2018-06-14T16:55:34.523Z,100859.41
2018-06-14T16:58:06.832Z,100867.87
2018-06-14T17:02:00.072Z,100863.63
2018-06-14T17:04:31.656Z,100868.13
2018-06-14T17:07:03.067Z,100867.02
2018-06-14T17:09:34.835Z,100870.87
2018-06-14T17:12:06.214Z,100868.80
2018-06-14T17:14:39.507Z,100868.80
2018-06-14T17:17:10.235Z,100869.77
2018-06-14T17:19:39.438Z,100865.67
2018-06-14T17:22:09.301Z,100870.42
2018-06-14T17:24:40.193Z,100869.32
2018-06-14T17:27:10.271Z,100872.31
2018-06-14T17:29:39.582Z,100876.80
2018-06-14T17:32:09.198Z,100891.59
2018-06-14T17:34:38.132Z,100893.96
2018-06-14T17:37:07.885Z,100885.52
2018-06-14T17:39:36.912Z,100889.62
2018-06-14T17:42:06.105Z,100893.12
2018-06-14T17:44:36.965Z,100890.89
2018-06-14T17:47:05.820Z,100897.95
2018-06-14T17:49:34.859Z,100897.95
2018-06-14T17:52:04.695Z,100899.58
2018-06-14T17:54:33.668Z,100901.45
2018-06-14T17:57:02.474Z,100902.95
2018-06-14T17:59:31.060Z,100903.97
2018-06-14T18:02:01.123Z,100898.41
2018-06-14T18:04:30.112Z,100908.94
2018-06-14T18:06:59.245Z,100904.13
2018-06-14T18:09:27.777Z,100907.98
2018-06-14T18:11:56.337Z,100907.38
2018-06-14T18:14:24.819Z,100909.39
2018-06-14T18:17:01.468Z,100915.86
2018-06-14T18:19:29.918Z,100917.48
2018-06-14T18:21:59.150Z,100909.19
2018-06-14T18:24:29.539Z,100913.54
2018-06-14T18:26:58.140Z,100912.82
2018-06-14T18:29:26.868Z,100914.80
2018-06-14T18:31:55.811Z,100913.69
2018-06-14T18:34:24.259Z,100914.23
2018-06-14T18:36:55.019Z,100912.98
2018-06-14T18:39:24.479Z,100917.47
2018-06-14T18:41:53.180Z,100920.09
2018-06-14T18:44:21.737Z,100932.02
2018-06-14T18:46:51.994Z,100927.81
2018-06-14T18:49:20.495Z,100935.03
2018-06-14T18:51:49.163Z,100933.41
2018-06-14T18:54:17.744Z,100939.26
2018-06-14T18:56:49.392Z,100940.52
2018-06-14T18:59:17.999Z,100944.20
2018-06-14T19:01:47.692Z,100938.27
2018-06-14T19:04:16.719Z,100942.25
2018-06-14T19:06:45.515Z,100942.89
2018-06-14T19:09:14.265Z,100950.31
2018-06-14T19:11:42.967Z,100953.56
2018-06-14T19:14:11.691Z,100957.15
2018-06-14T19:16:40.484Z,100959.39
2018-06-14T19:19:09.436Z,100964.73
2018-06-14T19:21:40.274Z,100971.05
2018-06-14T19:24:10.281Z,100977.25
2018-06-14T19:26:38.991Z,100985.05
2018-06-14T19:29:07.573Z,100988.91
2018-06-14T19:31:36.948Z,100992.97
2018-06-14T19:34:07.312Z,101000.02
2018-06-14T19:36:37.040Z,100994.08
2018-06-14T19:39:11.296Z,100993.59
2018-06-14T19:41:44.027Z,100994.69
2018-06-14T19:44:12.965Z,100996.28
2018-06-14T19:46:41.568Z,100989.58
2018-06-14T19:49:10.089Z,100994.03
2018-06-14T19:51:38.581Z,100997.98
2018-06-14T19:54:07.119Z,101003.30
2018-06-14T19:56:35.646Z,101004.53
2018-06-14T19:59:04.221Z,101004.13
2018-06-14T20:01:35.146Z,101000.55
2018-06-14T20:04:04.172Z,101004.86
2018-06-14T20:06:34.229Z,101005.22
2018-06-14T20:09:02.765Z,101007.67
2018-06-14T20:11:31.304Z,101011.75
2018-06-14T20:13:59.887Z,101011.47
2018-06-14T20:16:28.453Z,101010.94
2018-06-14T20:18:57.031Z,101019.23
2018-06-14T20:21:25.537Z,101014.51
2018-06-14T20:23:54.173Z,101015.63
2018-06-14T20:26:22.719Z,101022.52
2018-06-14T20:28:51.332Z,101025.69
2018-06-14T20:31:20.674Z,101023.54
2018-06-14T20:33:49.223Z,101026.08
2018-06-14T20:36:18.259Z,101029.91
2018-06-14T20:38:46.771Z,101032.23
2018-06-14T20:41:15.240Z,101027.77
2018-06-14T20:43:44.283Z,101034.78
2018-06-14T20:46:14.093Z,101032.78
2018-06-14T20:48:43.176Z,101034.12
2018-06-14T20:51:11.797Z,101034.05
2018-06-14T20:53:40.292Z,101031.09
2018-06-14T20:56:10.432Z,101034.89
2018-06-14T20:58:38.947Z,101026.80
2018-06-14T21:01:07.473Z,101034.59
2018-06-14T21:03:35.978Z,101032.70
2018-06-14T21:06:04.464Z,101032.80
2018-06-14T21:08:33.057Z,101028.69
2018-06-14T21:11:01.600Z,101035.20
2018-06-14T21:13:30.111Z,101046.41
2018-06-14T21:15:58.726Z,101040.81
2018-06-14T21:18:27.462Z,101041.43
2018-06-14T21:20:57.113Z,101045.56
2018-06-14T21:23:25.893Z,101045.77
2018-06-14T21:25:56.781Z,101042.89
2018-06-14T21:28:25.481Z,101045.57
2018-06-14T21:30:54.185Z,101043.03
2018-06-14T21:33:23.545Z,101045.58
2018-06-14T21:35:52.232Z,101049.00
2018-06-14T21:38:20.944Z,101041.06
2018-06-14T21:40:49.565Z,101046.23
2018-06-14T21:43:18.227Z,101048.30
2018-06-14T21:45:47.138Z,101049.70
2018-06-14T21:48:15.948Z,101054.37
2018-06-14T21:50:45.429Z,101048.66
2018-06-14T21:53:14.417Z,101049.73
2018-06-14T21:55:43.128Z,101039.48
2018-06-14T21:58:12.213Z,101041.16
2018-06-14T22:00:40.967Z,101043.30
2018-06-14T22:03:14.980Z,101043.74
2018-06-14T22:05:45.061Z,101039.01
2018-06-14T22:08:15.590Z,101041.34
2018-06-14T22:10:44.718Z,101039.12
2018-06-14T22:13:14.371Z,101040.40
2018-06-14T22:15:43.834Z,101045.45
2018-06-14T22:18:13.200Z,101048.91
2018-06-14T22:20:41.956Z,101039.82
2018-06-14T22:23:10.714Z,101043.48
2018-06-14T22:25:39.528Z,101037.31
2018-06-14T22:28:08.392Z,101044.12
2018-06-14T22:30:37.695Z,101038.61
2018-06-14T22:33:17.655Z,101045.39
2018-06-14T22:35:46.960Z,101043.55
2018-06-14T22:38:15.829Z,101040.66
2018-06-14T22:40:44.732Z,101043.05
2018-06-14T22:43:14.317Z,101037.63
